To NAV CANADA Home Page Login to a new session Search on AWWS site Disclaimer Vers la page française équivalente Tips FAQ What's new on the site To the Forecasts and Observations / NOTAM section To "File a Flight Plan" website Publications and other links Update of the User's profile FIC Telephone Numbers My Weather Data Folder Route Weather Data Regional Weather Data Local Weather Data To the Forecasts and Observations / NOTAM section
Request Generated 08/19/2022 at 02:51:59 UTC . Weather information available at that time is displayed.

METAR/TAF

THUNDER BAY/ON    (show WxCam)

METAR CYQT 190200Z 05005KT 20SM FEW140 SCT200 SCT280 17/16 A2980 RMK AC1CI2CI1 SLP094 DENSITY ALT 1200FT=
METAR CYQT 190100Z 07003KT 20SM FEW010 FEW140 SCT200 BKN280 19/17 A2979 RMK SC1AC1CI2CI2 SLP090 DENSITY ALT 1400FT=
METAR CYQT 190000Z 10004KT 20SM SCT035TCU BKN220 20/18 A2978 RMK TCU3CI4 SLP089 DENSITY ALT 1600FT=

TAF CYQT 190140Z 1902/1914 07005KT P6SM FEW005 BKN060 TEMPO
1902/1906 4SM BR BKN005 BKN060
FM190600 VRB03KT 6SM BR SCT004 OVC010 TEMPO 1906/1914 2SM BR
OVC004
RMK NXT FCST BY 190800Z
Your time UTC time
Weather data provided by Environment Canada and NAV CANADA